sensor_id;sensor_type;location;lat;lon;timestamp;temperature;humidity
10968;DHT22;5536;49.602;10.980;2022-10-16T00:01:38;15.30;99.90
10968;DHT22;5536;49.602;10.980;2022-10-16T00:04:05;15.30;99.90
10968;DHT22;5536;49.602;10.980;2022-10-16T00:06:32;15.30;99.90
10968;DHT22;5536;49.602;10.980;2022-10-16T00:08:59;15.30;99.90
10968;DHT22;5536;49.602;10.980;2022-10-16T00:11:30;15.30;99.90
10968;DHT22;5536;49.602;10.980;2022-10-16T00:14:00;15.30;99.90
10968;DHT22;5536;49.602;10.980;2022-10-16T00:16:27;15.30;99.90
10968;DHT22;5536;49.602;10.980;2022-10-16T00:18:55;15.30;99.90
10968;DHT22;5536;49.602;10.980;2022-10-16T00:21:24;15.30;99.90
10968;DHT22;5536;49.602;10.980;2022-10-16T00:23:51;15.30;99.90
10968;DHT22;5536;49.602;10.980;2022-10-16T00:26:19;15.30;99.90
10968;DHT22;5536;49.602;10.980;2022-10-16T00:28:48;15.30;99.90
10968;DHT22;5536;49.602;10.980;2022-10-16T00:31:17;15.30;99.90
10968;DHT22;5536;49.602;10.980;2022-10-16T00:33:45;15.30;99.90
10968;DHT22;5536;49.602;10.980;2022-10-16T00:36:14;15.20;99.90
10968;DHT22;5536;49.602;10.980;2022-10-16T00:38:41;15.20;99.90
10968;DHT22;5536;49.602;10.980;2022-10-16T00:41:11;15.20;99.90
10968;DHT22;5536;49.602;10.980;2022-10-16T00:43:41;15.20;99.90
10968;DHT22;5536;49.602;10.980;2022-10-16T00:46:15;15.20;99.90
10968;DHT22;5536;49.602;10.980;2022-10-16T00:48:49;15.10;99.90
10968;DHT22;5536;49.602;10.980;2022-10-16T00:51:19;15.10;99.90
10968;DHT22;5536;49.602;10.980;2022-10-16T00:53:48;15.10;99.90
10968;DHT22;5536;49.602;10.980;2022-10-16T00:56:16;15.10;99.90
10968;DHT22;5536;49.602;10.980;2022-10-16T00:58:44;15.10;99.90
10968;DHT22;5536;49.602;10.980;2022-10-16T01:01:12;15.20;99.90
10968;DHT22;5536;49.602;10.980;2022-10-16T01:03:40;15.20;99.90
10968;DHT22;5536;49.602;10.980;2022-10-16T01:06:19;15.30;99.90
10968;DHT22;5536;49.602;10.980;2022-10-16T01:08:58;15.30;99.90
10968;DHT22;5536;49.602;10.980;2022-10-16T01:11:33;15.30;99.90
10968;DHT22;5536;49.602;10.980;2022-10-16T01:14:11;15.30;99.90
10968;DHT22;5536;49.602;10.980;2022-10-16T01:16:45;15.20;99.90
10968;DHT22;5536;49.602;10.980;2022-10-16T01:19:20;15.30;99.90
10968;DHT22;5536;49.602;10.980;2022-10-16T01:21:51;15.20;99.90
10968;DHT22;5536;49.602;10.980;2022-10-16T01:24:30;15.20;99.90
10968;DHT22;5536;49.602;10.980;2022-10-16T01:27:11;15.20;99.90
10968;DHT22;5536;49.602;10.980;2022-10-16T01:29:43;15.20;99.90
10968;DHT22;5536;49.602;10.980;2022-10-16T01:32:16;15.30;99.90
10968;DHT22;5536;49.602;10.980;2022-10-16T01:34:49;15.30;99.90
10968;DHT22;5536;49.602;10.980;2022-10-16T01:37:25;15.30;99.90
10968;DHT22;5536;49.602;10.980;2022-10-16T01:39:59;15.30;99.90
10968;DHT22;5536;49.602;10.980;2022-10-16T01:42:31;15.30;99.90
10968;DHT22;5536;49.602;10.980;2022-10-16T01:45:00;15.30;99.90
10968;DHT22;5536;49.602;10.980;2022-10-16T01:47:30;15.30;99.90
10968;DHT22;5536;49.602;10.980;2022-10-16T01:49:58;15.30;99.90
10968;DHT22;5536;49.602;10.980;2022-10-16T01:52:27;15.30;99.90
10968;DHT22;5536;49.602;10.980;2022-10-16T01:54:56;15.30;99.90
10968;DHT22;5536;49.602;10.980;2022-10-16T01:57:25;15.30;99.90
10968;DHT22;5536;49.602;10.980;2022-10-16T01:59:58;15.30;99.90
10968;DHT22;5536;49.602;10.980;2022-10-16T02:02:28;15.20;99.90
10968;DHT22;5536;49.602;10.980;2022-10-16T02:04:58;15.30;99.90
10968;DHT22;5536;49.602;10.980;2022-10-16T02:07:28;15.30;99.90
10968;DHT22;5536;49.602;10.980;2022-10-16T02:09:55;15.30;99.90
10968;DHT22;5536;49.602;10.980;2022-10-16T02:12:26;15.30;99.90
10968;DHT22;5536;49.602;10.980;2022-10-16T02:14:56;15.30;99.90
10968;DHT22;5536;49.602;10.980;2022-10-16T02:17:23;15.20;99.90
10968;DHT22;5536;49.602;10.980;2022-10-16T02:19:54;15.20;99.90
10968;DHT22;5536;49.602;10.980;2022-10-16T02:22:25;15.20;99.90
10968;DHT22;5536;49.602;10.980;2022-10-16T02:24:57;15.30;99.90
10968;DHT22;5536;49.602;10.980;2022-10-16T02:27:27;15.20;99.90
10968;DHT22;5536;49.602;10.980;2022-10-16T02:30:03;15.30;99.90
10968;DHT22;5536;49.602;10.980;2022-10-16T02:32:34;15.20;99.90
10968;DHT22;5536;49.602;10.980;2022-10-16T02:35:03;15.20;99.90
10968;DHT22;5536;49.602;10.980;2022-10-16T02:37:31;15.20;99.90
10968;DHT22;5536;49.602;10.980;2022-10-16T02:39:58;15.20;99.90
10968;DHT22;5536;49.602;10.980;2022-10-16T02:42:31;15.20;99.90
10968;DHT22;5536;49.602;10.980;2022-10-16T02:45:01;15.20;99.90
10968;DHT22;5536;49.602;10.980;2022-10-16T02:47:28;15.20;99.90
10968;DHT22;5536;49.602;10.980;2022-10-16T02:49:55;15.20;99.90
10968;DHT22;5536;49.602;10.980;2022-10-16T02:52:22;15.30;99.90
10968;DHT22;5536;49.602;10.980;2022-10-16T02:54:49;15.30;99.90
10968;DHT22;5536;49.602;10.980;2022-10-16T02:57:16;15.30;99.90
10968;DHT22;5536;49.602;10.980;2022-10-16T02:59:43;15.30;99.90
10968;DHT22;5536;49.602;10.980;2022-10-16T03:02:12;15.30;99.90
10968;DHT22;5536;49.602;10.980;2022-10-16T03:04:39;15.20;99.90
10968;DHT22;5536;49.602;10.980;2022-10-16T03:07:06;15.20;99.90
10968;DHT22;5536;49.602;10.980;2022-10-16T03:09:33;15.20;99.90
10968;DHT22;5536;49.602;10.980;2022-10-16T03:12:00;15.20;99.90
10968;DHT22;5536;49.602;10.980;2022-10-16T03:14:27;15.20;99.90
10968;DHT22;5536;49.602;10.980;2022-10-16T03:16:54;15.20;99.90
10968;DHT22;5536;49.602;10.980;2022-10-16T03:19:23;15.20;99.90
10968;DHT22;5536;49.602;10.980;2022-10-16T03:21:50;15.20;99.90
10968;DHT22;5536;49.602;10.980;2022-10-16T03:24:16;15.20;99.90
10968;DHT22;5536;49.602;10.980;2022-10-16T03:26:43;15.20;99.90
10968;DHT22;5536;49.602;10.980;2022-10-16T03:29:10;15.20;99.90
10968;DHT22;5536;49.602;10.980;2022-10-16T03:31:38;15.20;99.90
10968;DHT22;5536;49.602;10.980;2022-10-16T03:34:05;15.20;99.90
10968;DHT22;5536;49.602;10.980;2022-10-16T03:36:33;15.10;99.90
10968;DHT22;5536;49.602;10.980;2022-10-16T03:39:00;15.10;99.90
10968;DHT22;5536;49.602;10.980;2022-10-16T03:41:27;15.10;99.90
10968;DHT22;5536;49.602;10.980;2022-10-16T03:43:54;15.10;99.90
10968;DHT22;5536;49.602;10.980;2022-10-16T03:46:21;15.10;99.90
10968;DHT22;5536;49.602;10.980;2022-10-16T03:48:48;15.10;99.90
10968;DHT22;5536;49.602;10.980;2022-10-16T03:51:15;15.10;99.90
10968;DHT22;5536;49.602;10.980;2022-10-16T03:53:43;15.10;99.90
10968;DHT22;5536;49.602;10.980;2022-10-16T03:56:10;15.20;99.90
10968;DHT22;5536;49.602;10.980;2022-10-16T03:58:38;15.10;99.90
10968;DHT22;5536;49.602;10.980;2022-10-16T04:01:05;15.20;99.90
10968;DHT22;5536;49.602;10.980;2022-10-16T04:03:32;15.20;99.90
10968;DHT22;5536;49.602;10.980;2022-10-16T04:05:59;15.20;99.90
10968;DHT22;5536;49.602;10.980;2022-10-16T04:08:25;15.20;99.90
10968;DHT22;5536;49.602;10.980;2022-10-16T04:10:54;15.20;99.90
10968;DHT22;5536;49.602;10.980;2022-10-16T04:13:21;15.20;99.90
10968;DHT22;5536;49.602;10.980;2022-10-16T04:15:48;15.20;99.90
10968;DHT22;5536;49.602;10.980;2022-10-16T04:18:15;15.30;99.90
10968;DHT22;5536;49.602;10.980;2022-10-16T04:20:42;15.30;99.90
10968;DHT22;5536;49.602;10.980;2022-10-16T04:23:09;15.20;99.90
10968;DHT22;5536;49.602;10.980;2022-10-16T04:25:36;15.20;99.90
10968;DHT22;5536;49.602;10.980;2022-10-16T04:28:05;15.10;99.90
10968;DHT22;5536;49.602;10.980;2022-10-16T04:30:32;15.10;99.90
10968;DHT22;5536;49.602;10.980;2022-10-16T04:32:59;15.10;99.90
10968;DHT22;5536;49.602;10.980;2022-10-16T04:35:26;15.10;99.90
10968;DHT22;5536;49.602;10.980;2022-10-16T04:37:53;15.10;99.90
10968;DHT22;5536;49.602;10.980;2022-10-16T04:40:20;15.10;99.90
10968;DHT22;5536;49.602;10.980;2022-10-16T04:42:47;15.10;99.90
10968;DHT22;5536;49.602;10.980;2022-10-16T04:45:15;15.10;99.90
10968;DHT22;5536;49.602;10.980;2022-10-16T04:47:43;15.10;99.90
10968;DHT22;5536;49.602;10.980;2022-10-16T04:50:10;15.10;99.90
10968;DHT22;5536;49.602;10.980;2022-10-16T04:52:37;15.10;99.90
10968;DHT22;5536;49.602;10.980;2022-10-16T04:55:05;15.10;99.90
10968;DHT22;5536;49.602;10.980;2022-10-16T04:57:32;15.10;99.90
10968;DHT22;5536;49.602;10.980;2022-10-16T04:59:59;15.10;99.90
10968;DHT22;5536;49.602;10.980;2022-10-16T05:02:30;15.10;99.90
10968;DHT22;5536;49.602;10.980;2022-10-16T05:04:57;15.10;99.90
10968;DHT22;5536;49.602;10.980;2022-10-16T05:07:24;15.10;99.90
10968;DHT22;5536;49.602;10.980;2022-10-16T05:09:54;15.00;99.90
10968;DHT22;5536;49.602;10.980;2022-10-16T05:12:21;15.00;99.90
10968;DHT22;5536;49.602;10.980;2022-10-16T05:14:48;15.00;99.90
10968;DHT22;5536;49.602;10.980;2022-10-16T05:17:15;15.00;99.90
10968;DHT22;5536;49.602;10.980;2022-10-16T05:19:49;15.00;99.90
10968;DHT22;5536;49.602;10.980;2022-10-16T05:22:17;15.00;99.90
10968;DHT22;5536;49.602;10.980;2022-10-16T05:24:44;14.90;99.90
10968;DHT22;5536;49.602;10.980;2022-10-16T05:27:11;14.90;99.90
10968;DHT22;5536;49.602;10.980;2022-10-16T05:29:44;14.90;99.90
10968;DHT22;5536;49.602;10.980;2022-10-16T05:32:11;14.90;99.90
10968;DHT22;5536;49.602;10.980;2022-10-16T05:34:38;15.00;99.90
10968;DHT22;5536;49.602;10.980;2022-10-16T05:37:07;15.00;99.90
10968;DHT22;5536;49.602;10.980;2022-10-16T05:39:34;15.00;99.90
10968;DHT22;5536;49.602;10.980;2022-10-16T05:42:05;15.00;99.90
10968;DHT22;5536;49.602;10.980;2022-10-16T05:44:32;15.10;99.90
10968;DHT22;5536;49.602;10.980;2022-10-16T05:46:59;15.00;99.90
10968;DHT22;5536;49.602;10.980;2022-10-16T05:49:26;15.00;99.90
10968;DHT22;5536;49.602;10.980;2022-10-16T05:51:53;14.90;99.90
10968;DHT22;5536;49.602;10.980;2022-10-16T05:54:22;14.90;99.90
10968;DHT22;5536;49.602;10.980;2022-10-16T05:57:17;14.90;99.90
10968;DHT22;5536;49.602;10.980;2022-10-16T06:06:49;14.90;99.90
10968;DHT22;5536;49.602;10.980;2022-10-16T06:20:01;14.90;99.90
10968;DHT22;5536;49.602;10.980;2022-10-16T06:29:21;15.00;99.90
10968;DHT22;5536;49.602;10.980;2022-10-16T06:35:28;15.00;99.90
10968;DHT22;5536;49.602;10.980;2022-10-16T06:37:59;15.00;99.90
10968;DHT22;5536;49.602;10.980;2022-10-16T06:40:38;15.00;99.90
10968;DHT22;5536;49.602;10.980;2022-10-16T06:43:12;15.00;99.90
10968;DHT22;5536;49.602;10.980;2022-10-16T06:46:07;15.00;99.90
10968;DHT22;5536;49.602;10.980;2022-10-16T06:48:59;15.00;99.90
10968;DHT22;5536;49.602;10.980;2022-10-16T06:55:12;15.10;99.90
10968;DHT22;5536;49.602;10.980;2022-10-16T06:58:23;15.10;99.90
10968;DHT22;5536;49.602;10.980;2022-10-16T07:01:18;15.10;99.90
10968;DHT22;5536;49.602;10.980;2022-10-16T07:04:04;15.10;99.90
10968;DHT22;5536;49.602;10.980;2022-10-16T07:06:35;15.20;99.90
10968;DHT22;5536;49.602;10.980;2022-10-16T07:09:14;15.20;99.90
10968;DHT22;5536;49.602;10.980;2022-10-16T07:12:07;15.20;99.90
10968;DHT22;5536;49.602;10.980;2022-10-16T07:15:13;15.20;99.90
10968;DHT22;5536;49.602;10.980;2022-10-16T07:18:20;15.30;99.90
10968;DHT22;5536;49.602;10.980;2022-10-16T07:21:08;15.30;99.90
10968;DHT22;5536;49.602;10.980;2022-10-16T07:23:36;15.30;99.90
10968;DHT22;5536;49.602;10.980;2022-10-16T07:26:32;15.30;99.90
10968;DHT22;5536;49.602;10.980;2022-10-16T07:29:32;15.40;99.90
10968;DHT22;5536;49.602;10.980;2022-10-16T07:32:21;15.40;99.90
10968;DHT22;5536;49.602;10.980;2022-10-16T07:35:01;15.50;99.90
10968;DHT22;5536;49.602;10.980;2022-10-16T07:40:41;15.50;99.90
10968;DHT22;5536;49.602;10.980;2022-10-16T07:43:14;15.60;99.90
10968;DHT22;5536;49.602;10.980;2022-10-16T07:46:12;15.60;99.90
10968;DHT22;5536;49.602;10.980;2022-10-16T07:48:45;15.70;99.90
10968;DHT22;5536;49.602;10.980;2022-10-16T07:51:21;15.70;99.90
10968;DHT22;5536;49.602;10.980;2022-10-16T07:53:52;15.80;99.90
10968;DHT22;5536;49.602;10.980;2022-10-16T07:56:27;15.80;99.90
10968;DHT22;5536;49.602;10.980;2022-10-16T07:59:00;16.00;99.90
10968;DHT22;5536;49.602;10.980;2022-10-16T08:01:36;16.10;99.90
10968;DHT22;5536;49.602;10.980;2022-10-16T08:04:31;16.20;99.90
10968;DHT22;5536;49.602;10.980;2022-10-16T08:07:17;16.30;99.90
10968;DHT22;5536;49.602;10.980;2022-10-16T08:09:52;16.20;99.90
10968;DHT22;5536;49.602;10.980;2022-10-16T08:12:32;16.30;99.90
10968;DHT22;5536;49.602;10.980;2022-10-16T08:15:55;16.20;99.90
10968;DHT22;5536;49.602;10.980;2022-10-16T08:18:31;16.20;99.90
10968;DHT22;5536;49.602;10.980;2022-10-16T08:21:04;16.20;99.90
10968;DHT22;5536;49.602;10.980;2022-10-16T08:23:42;16.20;99.90
10968;DHT22;5536;49.602;10.980;2022-10-16T08:26:16;16.20;99.90
10968;DHT22;5536;49.602;10.980;2022-10-16T08:29:19;16.20;99.90
10968;DHT22;5536;49.602;10.980;2022-10-16T08:32:06;16.30;99.90
10968;DHT22;5536;49.602;10.980;2022-10-16T08:37:44;16.50;99.90
10968;DHT22;5536;49.602;10.980;2022-10-16T08:40:31;16.70;99.90
10968;DHT22;5536;49.602;10.980;2022-10-16T08:43:17;16.90;99.90
10968;DHT22;5536;49.602;10.980;2022-10-16T08:46:17;17.00;99.90
10968;DHT22;5536;49.602;10.980;2022-10-16T09:03:02;17.40;99.90
10968;DHT22;5536;49.602;10.980;2022-10-16T09:06:08;17.50;99.90
10968;DHT22;5536;49.602;10.980;2022-10-16T09:09:11;17.70;99.90
10968;DHT22;5536;49.602;10.980;2022-10-16T09:12:10;17.70;99.90
10968;DHT22;5536;49.602;10.980;2022-10-16T09:18:51;17.80;99.90
10968;DHT22;5536;49.602;10.980;2022-10-16T09:21:46;17.80;99.90
10968;DHT22;5536;49.602;10.980;2022-10-16T09:24:25;17.80;99.90
10968;DHT22;5536;49.602;10.980;2022-10-16T09:27:18;17.90;99.90
10968;DHT22;5536;49.602;10.980;2022-10-16T09:30:06;17.90;99.90
10968;DHT22;5536;49.602;10.980;2022-10-16T09:33:06;17.90;99.90
10968;DHT22;5536;49.602;10.980;2022-10-16T09:35:49;17.80;99.90
10968;DHT22;5536;49.602;10.980;2022-10-16T09:38:26;17.80;99.90
10968;DHT22;5536;49.602;10.980;2022-10-16T09:40:54;17.70;99.90
10968;DHT22;5536;49.602;10.980;2022-10-16T09:43:26;17.70;99.90
10968;DHT22;5536;49.602;10.980;2022-10-16T09:46:04;17.60;99.90
10968;DHT22;5536;49.602;10.980;2022-10-16T09:48:38;17.50;99.90
10968;DHT22;5536;49.602;10.980;2022-10-16T09:51:18;17.60;99.90
10968;DHT22;5536;49.602;10.980;2022-10-16T09:53:47;17.60;99.90
10968;DHT22;5536;49.602;10.980;2022-10-16T09:56:23;17.70;99.90
10968;DHT22;5536;49.602;10.980;2022-10-16T09:58:52;17.70;99.90
10968;DHT22;5536;49.602;10.980;2022-10-16T10:01:22;17.80;99.90
10968;DHT22;5536;49.602;10.980;2022-10-16T10:03:59;17.80;99.90
10968;DHT22;5536;49.602;10.980;2022-10-16T10:06:44;17.90;99.90
10968;DHT22;5536;49.602;10.980;2022-10-16T10:09:23;18.00;99.90
10968;DHT22;5536;49.602;10.980;2022-10-16T10:14:52;18.20;99.90
10968;DHT22;5536;49.602;10.980;2022-10-16T10:17:29;18.20;99.90
10968;DHT22;5536;49.602;10.980;2022-10-16T10:20:26;18.20;99.90
10968;DHT22;5536;49.602;10.980;2022-10-16T10:23:15;18.40;99.90
10968;DHT22;5536;49.602;10.980;2022-10-16T10:25:54;18.40;99.90
10968;DHT22;5536;49.602;10.980;2022-10-16T10:28:47;18.50;99.90
10968;DHT22;5536;49.602;10.980;2022-10-16T10:31:29;18.70;99.90
10968;DHT22;5536;49.602;10.980;2022-10-16T10:34:21;18.80;99.90
10968;DHT22;5536;49.602;10.980;2022-10-16T10:37:04;18.70;99.90
10968;DHT22;5536;49.602;10.980;2022-10-16T10:39:49;18.70;99.90
10968;DHT22;5536;49.602;10.980;2022-10-16T10:42:49;18.60;99.90
10968;DHT22;5536;49.602;10.980;2022-10-16T10:45:49;18.60;99.90
10968;DHT22;5536;49.602;10.980;2022-10-16T10:49:01;18.50;99.90
10968;DHT22;5536;49.602;10.980;2022-10-16T10:51:57;18.50;99.90
10968;DHT22;5536;49.602;10.980;2022-10-16T10:55:05;18.60;99.90
10968;DHT22;5536;49.602;10.980;2022-10-16T10:57:48;18.70;99.90
10968;DHT22;5536;49.602;10.980;2022-10-16T11:00:56;18.80;99.90
10968;DHT22;5536;49.602;10.980;2022-10-16T11:04:00;19.00;99.90
10968;DHT22;5536;49.602;10.980;2022-10-16T11:06:55;19.10;99.90
10968;DHT22;5536;49.602;10.980;2022-10-16T11:09:40;19.10;99.90
10968;DHT22;5536;49.602;10.980;2022-10-16T11:12:24;19.20;99.90
10968;DHT22;5536;49.602;10.980;2022-10-16T11:15:03;19.20;99.90
10968;DHT22;5536;49.602;10.980;2022-10-16T11:17:38;19.30;99.90
10968;DHT22;5536;49.602;10.980;2022-10-16T11:20:16;19.10;99.90
10968;DHT22;5536;49.602;10.980;2022-10-16T11:22:51;19.10;99.90
10968;DHT22;5536;49.602;10.980;2022-10-16T11:25:25;19.10;99.90
10968;DHT22;5536;49.602;10.980;2022-10-16T11:28:07;19.10;99.90
10968;DHT22;5536;49.602;10.980;2022-10-16T11:30:50;19.10;99.90
10968;DHT22;5536;49.602;10.980;2022-10-16T11:33:47;19.20;99.90
10968;DHT22;5536;49.602;10.980;2022-10-16T11:36:46;19.30;99.90
10968;DHT22;5536;49.602;10.980;2022-10-16T11:39:33;19.60;99.90
10968;DHT22;5536;49.602;10.980;2022-10-16T11:42:07;19.90;99.90
10968;DHT22;5536;49.602;10.980;2022-10-16T11:48:25;20.40;99.90
10968;DHT22;5536;49.602;10.980;2022-10-16T11:51:15;20.70;99.90
10968;DHT22;5536;49.602;10.980;2022-10-16T11:54:26;21.30;99.90
10968;DHT22;5536;49.602;10.980;2022-10-16T11:57:31;22.10;99.90
10968;DHT22;5536;49.602;10.980;2022-10-16T12:01:20;23.00;99.90
10968;DHT22;5536;49.602;10.980;2022-10-16T12:07:15;24.10;1.00
10968;DHT22;5536;49.602;10.980;2022-10-16T12:10:26;24.10;1.00
10968;DHT22;5536;49.602;10.980;2022-10-16T12:13:43;23.90;1.00
10968;DHT22;5536;49.602;10.980;2022-10-16T12:16:27;24.00;1.00
10968;DHT22;5536;49.602;10.980;2022-10-16T12:19:27;24.00;1.00
10968;DHT22;5536;49.602;10.980;2022-10-16T12:22:19;24.70;1.00
10968;DHT22;5536;49.602;10.980;2022-10-16T12:25:29;24.10;1.00
10968;DHT22;5536;49.602;10.980;2022-10-16T12:29:12;24.40;1.00
10968;DHT22;5536;49.602;10.980;2022-10-16T12:31:44;24.90;1.00
10968;DHT22;5536;49.602;10.980;2022-10-16T12:38:24;25.60;1.00
10968;DHT22;5536;49.602;10.980;2022-10-16T12:44:33;26.00;99.90
10968;DHT22;5536;49.602;10.980;2022-10-16T12:54:10;26.80;67.60
10968;DHT22;5536;49.602;10.980;2022-10-16T12:57:18;27.40;91.40
10968;DHT22;5536;49.602;10.980;2022-10-16T13:07:26;26.80;92.80
10968;DHT22;5536;49.602;10.980;2022-10-16T13:10:26;25.70;99.90
10968;DHT22;5536;49.602;10.980;2022-10-16T13:13:50;24.90;99.90
10968;DHT22;5536;49.602;10.980;2022-10-16T13:16:30;24.60;1.00
10968;DHT22;5536;49.602;10.980;2022-10-16T13:19:20;25.50;1.00
10968;DHT22;5536;49.602;10.980;2022-10-16T13:26:37;25.90;99.90
10968;DHT22;5536;49.602;10.980;2022-10-16T13:29:38;26.20;1.00
10968;DHT22;5536;49.602;10.980;2022-10-16T13:32:45;25.80;1.00
10968;DHT22;5536;49.602;10.980;2022-10-16T13:35:22;25.30;99.90
10968;DHT22;5536;49.602;10.980;2022-10-16T13:38:11;24.60;99.90
10968;DHT22;5536;49.602;10.980;2022-10-16T13:41:12;23.30;99.90
10968;DHT22;5536;49.602;10.980;2022-10-16T13:44:15;22.80;1.00
10968;DHT22;5536;49.602;10.980;2022-10-16T13:47:03;22.40;99.90
10968;DHT22;5536;49.602;10.980;2022-10-16T13:49:35;22.20;99.90
10968;DHT22;5536;49.602;10.980;2022-10-16T13:52:04;22.20;99.90
10968;DHT22;5536;49.602;10.980;2022-10-16T13:54:34;21.90;99.90
10968;DHT22;5536;49.602;10.980;2022-10-16T13:57:06;21.70;99.90
10968;DHT22;5536;49.602;10.980;2022-10-16T13:59:39;21.60;99.90
10968;DHT22;5536;49.602;10.980;2022-10-16T14:02:17;21.60;99.90
10968;DHT22;5536;49.602;10.980;2022-10-16T14:05:01;21.60;99.90
10968;DHT22;5536;49.602;10.980;2022-10-16T14:07:32;21.60;99.90
10968;DHT22;5536;49.602;10.980;2022-10-16T14:10:04;21.50;99.90
10968;DHT22;5536;49.602;10.980;2022-10-16T14:12:36;21.40;99.90
10968;DHT22;5536;49.602;10.980;2022-10-16T14:15:21;21.40;99.90
10968;DHT22;5536;49.602;10.980;2022-10-16T14:17:51;21.40;99.90
10968;DHT22;5536;49.602;10.980;2022-10-16T14:20:38;21.30;99.90
10968;DHT22;5536;49.602;10.980;2022-10-16T14:23:38;21.40;99.90
10968;DHT22;5536;49.602;10.980;2022-10-16T14:26:18;21.30;99.90
10968;DHT22;5536;49.602;10.980;2022-10-16T14:29:00;21.30;99.90
10968;DHT22;5536;49.602;10.980;2022-10-16T14:31:58;21.30;99.90
10968;DHT22;5536;49.602;10.980;2022-10-16T14:34:29;21.20;99.90
10968;DHT22;5536;49.602;10.980;2022-10-16T14:37:05;21.20;99.90
10968;DHT22;5536;49.602;10.980;2022-10-16T14:39:36;21.30;99.90
10968;DHT22;5536;49.602;10.980;2022-10-16T14:42:16;21.30;99.90
10968;DHT22;5536;49.602;10.980;2022-10-16T14:44:47;21.10;99.90
10968;DHT22;5536;49.602;10.980;2022-10-16T14:47:23;21.20;99.90
10968;DHT22;5536;49.602;10.980;2022-10-16T14:49:54;21.20;99.90
10968;DHT22;5536;49.602;10.980;2022-10-16T14:52:24;21.20;99.90
10968;DHT22;5536;49.602;10.980;2022-10-16T14:54:53;21.20;99.90
10968;DHT22;5536;49.602;10.980;2022-10-16T14:57:24;21.10;99.90
10968;DHT22;5536;49.602;10.980;2022-10-16T14:59:56;21.20;99.90
10968;DHT22;5536;49.602;10.980;2022-10-16T15:02:29;21.10;99.90
10968;DHT22;5536;49.602;10.980;2022-10-16T15:05:10;21.00;99.90
10968;DHT22;5536;49.602;10.980;2022-10-16T15:07:41;20.90;99.90
10968;DHT22;5536;49.602;10.980;2022-10-16T15:10:10;20.80;99.90
10968;DHT22;5536;49.602;10.980;2022-10-16T15:12:39;20.80;99.90
10968;DHT22;5536;49.602;10.980;2022-10-16T15:15:26;20.70;99.90
10968;DHT22;5536;49.602;10.980;2022-10-16T15:17:59;20.60;99.90
10968;DHT22;5536;49.602;10.980;2022-10-16T15:20:31;20.40;99.90
10968;DHT22;5536;49.602;10.980;2022-10-16T15:23:02;20.40;99.90
10968;DHT22;5536;49.602;10.980;2022-10-16T15:25:42;20.30;99.90
10968;DHT22;5536;49.602;10.980;2022-10-16T15:28:13;20.20;99.90
10968;DHT22;5536;49.602;10.980;2022-10-16T15:30:42;20.10;99.90
10968;DHT22;5536;49.602;10.980;2022-10-16T15:33:13;20.00;99.90
10968;DHT22;5536;49.602;10.980;2022-10-16T15:35:41;20.10;99.90
10968;DHT22;5536;49.602;10.980;2022-10-16T15:38:11;20.00;99.90
10968;DHT22;5536;49.602;10.980;2022-10-16T15:40:39;19.90;99.90
10968;DHT22;5536;49.602;10.980;2022-10-16T15:43:07;19.90;99.90
10968;DHT22;5536;49.602;10.980;2022-10-16T15:45:34;19.80;99.90
10968;DHT22;5536;49.602;10.980;2022-10-16T15:48:01;19.80;99.90
10968;DHT22;5536;49.602;10.980;2022-10-16T15:50:32;19.70;99.90
10968;DHT22;5536;49.602;10.980;2022-10-16T15:53:01;19.60;99.90
10968;DHT22;5536;49.602;10.980;2022-10-16T15:55:28;19.50;99.90
10968;DHT22;5536;49.602;10.980;2022-10-16T15:57:56;19.40;99.90
10968;DHT22;5536;49.602;10.980;2022-10-16T16:00:25;19.40;99.90
10968;DHT22;5536;49.602;10.980;2022-10-16T16:02:54;19.40;99.90
10968;DHT22;5536;49.602;10.980;2022-10-16T16:05:24;19.30;99.90
10968;DHT22;5536;49.602;10.980;2022-10-16T16:07:56;19.30;99.90
10968;DHT22;5536;49.602;10.980;2022-10-16T16:10:24;19.20;99.90
10968;DHT22;5536;49.602;10.980;2022-10-16T16:12:53;19.20;99.90
10968;DHT22;5536;49.602;10.980;2022-10-16T16:15:23;19.10;99.90
10968;DHT22;5536;49.602;10.980;2022-10-16T16:17:56;19.00;99.90
10968;DHT22;5536;49.602;10.980;2022-10-16T16:20:26;19.00;99.90
10968;DHT22;5536;49.602;10.980;2022-10-16T16:22:57;19.00;99.90
10968;DHT22;5536;49.602;10.980;2022-10-16T16:25:28;19.00;99.90
10968;DHT22;5536;49.602;10.980;2022-10-16T16:27:58;18.90;99.90
10968;DHT22;5536;49.602;10.980;2022-10-16T16:30:26;18.80;99.90
10968;DHT22;5536;49.602;10.980;2022-10-16T16:32:53;18.80;99.90
10968;DHT22;5536;49.602;10.980;2022-10-16T16:35:24;18.80;99.90
10968;DHT22;5536;49.602;10.980;2022-10-16T16:37:53;18.80;99.90
10968;DHT22;5536;49.602;10.980;2022-10-16T16:40:22;18.70;99.90
10968;DHT22;5536;49.602;10.980;2022-10-16T16:42:49;18.70;99.90
10968;DHT22;5536;49.602;10.980;2022-10-16T16:45:16;18.60;99.90
10968;DHT22;5536;49.602;10.980;2022-10-16T16:47:44;18.60;99.90
10968;DHT22;5536;49.602;10.980;2022-10-16T16:50:11;18.60;99.90
10968;DHT22;5536;49.602;10.980;2022-10-16T16:52:39;18.50;99.90
10968;DHT22;5536;49.602;10.980;2022-10-16T16:55:08;18.40;99.90
10968;DHT22;5536;49.602;10.980;2022-10-16T16:57:37;18.40;99.90
10968;DHT22;5536;49.602;10.980;2022-10-16T17:00:05;18.40;99.90
10968;DHT22;5536;49.602;10.980;2022-10-16T17:02:32;18.40;99.90
10968;DHT22;5536;49.602;10.980;2022-10-16T17:04:59;18.30;99.90
10968;DHT22;5536;49.602;10.980;2022-10-16T17:07:29;18.30;99.90
10968;DHT22;5536;49.602;10.980;2022-10-16T17:09:58;18.30;99.90
10968;DHT22;5536;49.602;10.980;2022-10-16T17:12:25;18.20;99.90
10968;DHT22;5536;49.602;10.980;2022-10-16T17:14:54;18.40;99.90
10968;DHT22;5536;49.602;10.980;2022-10-16T17:17:21;18.50;99.90
10968;DHT22;5536;49.602;10.980;2022-10-16T17:19:49;18.50;99.90
10968;DHT22;5536;49.602;10.980;2022-10-16T17:22:16;18.50;99.90
10968;DHT22;5536;49.602;10.980;2022-10-16T17:24:43;18.40;99.90
10968;DHT22;5536;49.602;10.980;2022-10-16T17:27:11;18.40;99.90
10968;DHT22;5536;49.602;10.980;2022-10-16T17:29:38;18.40;99.90
10968;DHT22;5536;49.602;10.980;2022-10-16T17:32:06;18.40;99.90
10968;DHT22;5536;49.602;10.980;2022-10-16T17:34:33;18.50;99.90
10968;DHT22;5536;49.602;10.980;2022-10-16T17:37:01;18.60;99.90
10968;DHT22;5536;49.602;10.980;2022-10-16T17:39:28;18.60;99.90
10968;DHT22;5536;49.602;10.980;2022-10-16T17:41:55;18.70;99.90
10968;DHT22;5536;49.602;10.980;2022-10-16T17:44:22;18.60;99.90
10968;DHT22;5536;49.602;10.980;2022-10-16T17:46:51;18.60;99.90
10968;DHT22;5536;49.602;10.980;2022-10-16T17:49:21;18.50;99.90
10968;DHT22;5536;49.602;10.980;2022-10-16T17:51:49;18.50;99.90
10968;DHT22;5536;49.602;10.980;2022-10-16T17:54:17;18.30;99.90
10968;DHT22;5536;49.602;10.980;2022-10-16T17:56:44;18.30;99.90
10968;DHT22;5536;49.602;10.980;2022-10-16T17:59:12;18.30;99.90
10968;DHT22;5536;49.602;10.980;2022-10-16T18:01:40;18.20;99.90